Time;durP1;ratioP1;P1;durP2;ratioP2;P2;SDS_P1;SDS_P2;PMS_P1;PMS_P2;Temp;Humidity;BMP_temperature;BMP_pressure;BME280_temperature;BME280_humidity;BME280_pressure;Samples;Min_cycle;Max_cycle;Signal;HPM_P1;HPM_P2
2022/01/15 00:01:32;;;;;;;29.72;14.47;;;;;;;1.58;96.85;99926.01;4259873;82;21093;-90
2022/01/15 00:07:33;;;;;;;31.57;13.53;;;;;;;1.47;97.00;99931.30;4272522;82;21583;-92
2022/01/15 00:13:35;;;;;;;29.42;13.80;;;;;;;1.34;96.89;99928.79;4269289;82;22032;-90
2022/01/15 00:19:43;;;;;;;27.00;12.58;;;;;;;1.21;96.81;99918.72;4269860;82;21129;-92
2022/01/15 00:25:45;;;;;;;28.20;12.58;;;;;;;1.16;97.12;99916.09;4269377;82;21005;-91
2022/01/15 00:31:46;;;;;;;27.07;11.12;;;;;;;1.07;96.97;99917.84;4272860;82;21097;-91
2022/01/15 00:37:48;;;;;;;27.93;11.60;;;;;;;1.00;96.88;99909.86;4273360;82;21062;-91
2022/01/15 00:43:49;;;;;;;31.77;12.80;;;;;;;0.90;96.93;99917.53;4274910;82;21086;-91
2022/01/15 00:49:55;;;;;;;35.05;11.93;;;;;;;0.83;96.93;99924.37;4272402;82;21522;-91
2022/01/15 00:55:56;;;;;;;34.97;13.30;;;;;;;0.74;96.92;99918.80;4271891;82;21090;-93
2022/01/15 01:01:58;;;;;;;34.10;14.43;;;;;;;0.68;96.97;99915.10;4266327;82;22529;-92
2022/01/15 01:07:59;;;;;;;38.50;15.60;;;;;;;0.68;97.17;99909.71;4254837;83;21032;-91
2022/01/15 01:20:11;;;;;;;34.53;16.37;;;;;;;0.71;97.49;99926.12;4251390;83;21473;-91
2022/01/15 01:26:26;;;;;;;31.90;15.28;;;;;;;0.67;97.43;99929.14;4256028;83;21538;-92
2022/01/15 01:32:42;;;;;;;43.63;16.75;;;;;;;0.67;97.47;99935.88;4253217;82;21040;-92
2022/01/15 01:45:12;;;;;;;37.73;16.25;;;;;;;0.64;97.57;99944.55;4256118;82;21603;-93
2022/01/15 01:51:29;;;;;;;38.50;15.63;;;;;;;0.64;97.61;99949.93;4257202;82;21053;-91
2022/01/15 01:57:32;;;;;;;39.00;15.15;;;;;;;0.67;97.76;99957.97;4255517;82;20989;-93
2022/01/15 02:03:34;;;;;;;38.10;14.20;;;;;;;0.70;97.75;99959.56;4263443;82;21042;-92
2022/01/15 02:09:35;;;;;;;32.58;13.10;;;;;;;0.75;97.73;99957.34;4270617;82;21109;-93
2022/01/15 02:15:36;;;;;;;38.20;14.13;;;;;;;0.80;97.73;99955.95;4263924;83;21048;-91
2022/01/15 02:27:48;;;;;;;28.95;10.72;;;;;;;0.79;97.61;99954.31;4280708;82;21036;-91
2022/01/15 02:33:54;;;;;;;36.40;11.85;;;;;;;0.76;97.43;99942.77;4271854;82;21038;-91
2022/01/15 02:40:01;;;;;;;34.67;11.15;;;;;;;0.73;97.45;99952.25;4271072;82;21018;-92
2022/01/15 02:52:26;;;;;;;45.92;13.38;;;;;;;0.64;97.30;99966.09;4271865;83;21019;-91
2022/01/15 02:58:28;;;;;;;25.82;11.85;;;;;;;0.56;97.08;99957.83;4274151;82;21018;-92
2022/01/15 03:04:35;;;;;;;29.92;12.53;;;;;;;0.46;97.00;99970.86;4275161;82;21086;-92
2022/01/15 03:10:39;;;;;;;41.33;12.30;;;;;;;0.38;96.93;99965.27;4271399;82;21680;-92
2022/01/15 03:16:42;;;;;;;35.13;12.58;;;;;;;0.30;97.01;99960.53;4272079;82;21037;-92
2022/01/15 03:22:46;;;;;;;31.65;13.05;;;;;;;0.24;96.96;99967.03;4274409;82;21636;-92
2022/01/15 03:28:48;;;;;;;38.48;13.98;;;;;;;0.13;96.87;99960.12;4273032;82;21837;-92
2022/01/15 03:34:50;;;;;;;32.08;13.05;;;;;;;0.07;97.03;99973.38;4270558;82;21038;-92
2022/01/15 03:40:54;;;;;;;33.00;11.90;;;;;;;0.03;97.01;99972.35;4269605;82;21086;-91
2022/01/15 03:46:56;;;;;;;31.52;11.95;;;;;;;-0.02;96.99;99968.60;4274093;82;21375;-92
2022/01/15 03:53:01;;;;;;;34.48;12.07;;;;;;;-0.08;97.45;99945.51;4269616;82;21097;-92
2022/01/15 03:59:03;;;;;;;37.45;12.20;;;;;;;0.00;97.37;99958.36;4270358;82;21070;-94
2022/01/15 04:05:07;;;;;;;32.53;13.48;;;;;;;0.17;97.39;99973.30;4358789;78;106539;-93
2022/01/15 04:11:12;;;;;;;34.55;12.58;;;;;;;0.19;97.25;99986.73;4386549;79;21122;-93
2022/01/15 04:17:13;;;;;;;25.95;11.90;;;;;;;0.13;97.18;99995.13;4379080;79;21023;-92
2022/01/15 04:23:15;;;;;;;42.90;14.65;;;;;;;0.13;97.27;99992.44;4213409;82;21028;-93
2022/01/15 04:29:17;;;;;;;33.55;13.85;;;;;;;0.13;97.33;99994.59;4241641;82;21015;-92
2022/01/15 04:35:22;;;;;;;34.18;14.55;;;;;;;0.15;97.30;99996.48;4239863;82;21126;-93
2022/01/15 04:41:24;;;;;;;31.17;13.00;;;;;;;0.19;97.29;99996.72;4249617;82;21035;-93
2022/01/15 04:47:26;;;;;;;39.95;15.10;;;;;;;0.20;97.20;100003.70;4244517;82;21066;-93
2022/01/15 04:53:28;;;;;;;39.42;13.72;;;;;;;0.16;97.13;100006.71;4231225;82;21067;-92
2022/01/15 04:59:30;;;;;;;47.88;16.02;;;;;;;0.16;97.16;100010.19;4214333;83;21098;-93
2022/01/15 05:05:31;;;;;;;43.13;17.95;;;;;;;0.17;97.27;100006.43;4390873;79;21609;-93
2022/01/15 05:17:53;;;;;;;42.70;17.85;;;;;;;0.23;97.28;100016.59;4395820;79;21632;-94
2022/01/15 05:23:55;;;;;;;42.25;19.90;;;;;;;0.22;97.19;100023.08;4391755;79;21579;-93
2022/01/15 05:29:56;;;;;;;52.53;22.17;;;;;;;0.17;97.01;100024.46;4398183;79;20963;-93
2022/01/15 05:35:58;;;;;;;51.33;23.22;;;;;;;0.06;96.51;100035.86;4387884;79;22013;-92
2022/01/15 05:42:01;;;;;;;61.23;24.43;;;;;;;0.06;96.51;100035.86;4392064;79;21082;-94
2022/01/15 05:48:08;;;;;;;59.58;23.70;;;;;;;0.01;96.62;100026.47;4376744;79;21027;-93
2022/01/15 05:54:10;;;;;;;56.80;24.07;;;;;;;-0.05;96.56;100023.56;4401720;79;21082;-93
2022/01/15 06:00:12;;;;;;;58.40;24.60;;;;;;;-0.14;96.51;100023.34;4393018;80;21378;-94
2022/01/15 06:06:21;;;;;;;55.43;23.20;;;;;;;-0.30;96.44;100039.32;4393643;80;21053;-94
2022/01/15 06:12:30;;;;;;;50.20;20.40;;;;;;;-0.30;96.44;100039.32;4368728;79;21098;-95
2022/01/15 06:18:28;;;;;;;40.88;16.55;;;;;;;-0.29;96.56;100039.60;4391459;79;21058;-93
2022/01/15 06:24:31;;;;;;;52.85;21.15;;;;;;;-0.31;96.54;100043.64;4389025;79;21750;-93
2022/01/15 06:30:33;;;;;;;52.70;22.35;;;;;;;-0.37;96.32;100041.53;4392675;79;21046;-93
2022/01/15 06:36:34;;;;;;;47.25;18.15;;;;;;;-0.46;96.25;100052.62;4365033;79;21046;-93
2022/01/15 06:42:43;;;;;;;46.13;19.00;;;;;;;-0.61;96.34;100051.33;4388014;79;21648;-93
2022/01/15 06:48:46;;;;;;;46.75;18.92;;;;;;;-0.61;96.34;100051.33;4390087;79;21015;-93
2022/01/15 06:54:50;;;;;;;50.25;18.15;;;;;;;-0.63;96.57;100064.80;4384810;79;21526;-92
2022/01/15 07:00:53;;;;;;;55.05;21.27;;;;;;;-0.58;96.88;100066.13;4389216;79;20975;-93
2022/01/15 07:06:54;;;;;;;58.40;22.58;;;;;;;-0.50;96.98;100077.10;4379848;79;21469;-92
2022/01/15 07:12:55;;;;;;;56.58;23.60;;;;;;;-0.44;96.84;100078.68;4379762;79;21838;-93
2022/01/15 07:18:57;;;;;;;55.15;21.62;;;;;;;-0.39;96.81;100081.88;4380551;79;21038;-91
2022/01/15 07:24:58;;;;;;;48.13;20.85;;;;;;;-0.30;96.89;100077.55;4377570;79;21108;-93
2022/01/15 07:31:00;;;;;;;60.30;21.27;;;;;;;-0.19;96.89;100072.38;4384400;79;20983;-93
2022/01/15 07:37:04;;;;;;;50.05;18.95;;;;;;;-0.13;96.86;100073.95;4375475;79;21031;-93
2022/01/15 07:43:05;;;;;;;50.63;19.27;;;;;;;-0.12;96.77;100082.27;4381749;79;21043;-93
2022/01/15 07:49:07;;;;;;;46.92;18.87;;;;;;;-0.14;96.66;100079.05;4373565;79;20999;-93
2022/01/15 07:55:11;;;;;;;44.93;18.57;;;;;;;-0.10;96.70;100094.39;4378182;79;21991;-93
2022/01/15 08:01:13;;;;;;;46.90;17.17;;;;;;;-0.09;96.82;100099.20;4376707;79;21053;-92
2022/01/15 08:07:14;;;;;;;52.17;19.05;;;;;;;-0.04;96.91;100104.03;4392632;79;21043;-94
2022/01/15 08:13:16;;;;;;;50.12;19.07;;;;;;;-0.04;96.91;100104.03;4391269;79;21010;-94
2022/01/15 08:19:19;;;;;;;54.05;20.48;;;;;;;0.03;96.93;100113.16;4388146;79;21027;-93
2022/01/15 08:25:22;;;;;;;58.68;20.57;;;;;;;0.09;96.77;100108.52;4372998;79;21014;-93
2022/01/15 08:31:24;;;;;;;45.85;17.55;;;;;;;0.16;96.83;100101.73;4389189;79;21497;-92
2022/01/15 08:37:25;;;;;;;50.58;18.00;;;;;;;0.31;96.87;100110.26;4386111;79;21019;-93
2022/01/15 08:43:27;;;;;;;41.50;15.20;;;;;;;0.47;96.71;100119.27;4387546;79;21062;-93
2022/01/15 08:49:28;;;;;;;43.63;15.70;;;;;;;0.40;96.29;100092.41;4391714;79;20987;-94
2022/01/15 08:55:30;;;;;;;50.38;18.40;;;;;;;0.40;96.29;100092.41;4387407;79;21071;-92
2022/01/15 09:01:32;;;;;;;42.45;17.30;;;;;;;0.45;96.09;100108.53;4389325;79;21621;-93
2022/01/15 09:07:35;;;;;;;40.15;14.70;;;;;;;0.39;96.02;100111.01;4390834;79;21120;-93
2022/01/15 09:13:37;;;;;;;50.05;16.90;;;;;;;0.33;95.91;100112.14;4387324;79;21015;-93
2022/01/15 09:19:38;;;;;;;41.70;15.10;;;;;;;0.52;96.06;100124.63;4388208;79;21072;-92
2022/01/15 09:25:40;;;;;;;35.05;14.85;;;;;;;1.27;96.92;100110.41;4356732;79;21077;-93
2022/01/15 09:31:41;;;;;;;45.65;17.80;;;;;;;2.03;95.32;100110.80;4384967;79;21110;-92
2022/01/15 09:37:47;;;;;;;42.17;17.07;;;;;;;2.75;95.77;100112.36;4382611;79;21101;-92
2022/01/15 09:43:49;;;;;;;42.90;17.20;;;;;;;3.45;94.16;100105.36;4389815;79;21089;-92
2022/01/15 09:49:53;;;;;;;35.63;15.98;;;;;;;3.97;91.91;100103.45;4397374;79;21446;-92
2022/01/15 09:55:56;;;;;;;34.38;14.75;;;;;;;4.42;93.25;100099.14;4383731;79;21621;-94
2022/01/15 10:02:02;;;;;;;30.57;13.33;;;;;;;4.89;91.58;100107.19;4391440;79;21073;-94
2022/01/15 10:08:07;;;;;;;31.90;15.20;;;;;;;5.07;91.11;100093.16;4392517;79;21043;-92
2022/01/15 10:14:34;;;;;;;39.58;15.28;;;;;;;5.31;90.47;100084.87;4394817;79;21566;-92
2022/01/15 10:20:37;;;;;;;33.13;15.13;;;;;;;5.35;89.89;100087.22;4385925;79;21070;-93
2022/01/15 10:26:39;;;;;;;41.30;15.90;;;;;;;5.30;88.86;100086.55;4392077;79;21050;-92
2022/01/15 10:33:08;;;;;;;31.17;14.00;;;;;;;5.34;88.45;100085.59;4372045;79;21532;-92
2022/01/15 10:39:19;;;;;;;35.55;15.80;;;;;;;5.12;88.25;100088.95;4392320;79;21042;-93
2022/01/15 10:45:23;;;;;;;40.03;16.77;;;;;;;5.17;88.40;100090.97;4372164;79;21038;-92
2022/01/15 10:51:25;;;;;;;28.57;12.88;;;;;;;5.10;87.59;100097.95;4386390;79;21260;-92
2022/01/15 10:57:34;;;;;;;35.35;14.25;;;;;;;5.12;86.73;100112.03;4376415;79;21037;-93
2022/01/15 11:03:38;;;;;;;33.13;14.85;;;;;;;5.08;87.06;100100.98;4224839;83;21072;-91
2022/01/15 11:09:43;;;;;;;36.88;14.30;;;;;;;4.94;86.15;100089.97;4242401;83;21041;-94
2022/01/15 11:15:51;;;;;;;33.28;13.38;;;;;;;4.79;85.56;100100.10;4183607;84;21063;-90
2022/01/15 11:21:55;;;;;;;34.10;13.22;;;;;;;4.51;84.04;100091.08;4391870;79;21019;-91
2022/01/15 11:27:57;;;;;;;29.87;11.83;;;;;;;4.46;85.17;100097.98;4384224;79;20982;-91
2022/01/15 11:34:04;;;;;;;35.13;12.23;;;;;;;4.37;83.14;100089.77;4396485;79;21039;-92
2022/01/15 11:40:39;;;;;;;34.63;13.05;;;;;;;4.25;83.97;100084.64;4386571;79;21410;-92
2022/01/15 11:46:54;;;;;;;32.67;11.93;;;;;;;4.11;83.45;100086.05;4357168;79;21081;-90
2022/01/15 11:52:57;;;;;;;35.05;12.95;;;;;;;4.03;83.28;100085.97;4391156;79;21066;-91
2022/01/15 11:59:21;;;;;;;34.80;12.25;;;;;;;3.90;82.12;100082.77;4388426;79;21051;-91
2022/01/15 12:05:27;;;;;;;24.23;11.55;;;;;;;3.74;81.53;100080.13;4393470;79;21054;-91
2022/01/15 12:11:33;;;;;;;25.65;10.55;;;;;;;3.58;81.78;100078.30;4386324;79;21536;-92
2022/01/15 12:17:51;;;;;;;34.25;12.40;;;;;;;3.38;81.27;100076.02;4391171;80;21007;-92
2022/01/15 12:23:52;;;;;;;32.78;15.13;;;;;;;3.20;80.59;100076.36;4386845;79;21478;-92
2022/01/15 12:30:14;;;;;;;30.48;12.43;;;;;;;3.09;80.74;100069.53;4385591;79;21027;-91
2022/01/15 12:36:17;;;;;;;35.35;13.60;;;;;;;3.01;80.93;100066.71;4377849;79;20999;-91
2022/01/15 12:42:20;;;;;;;39.05;15.88;;;;;;;2.91;80.01;100050.13;4392828;79;21090;-92
2022/01/15 12:48:25;;;;;;;33.23;14.78;;;;;;;2.87;80.90;100050.48;4394407;80;21018;-91
2022/01/15 12:54:32;;;;;;;39.65;15.58;;;;;;;2.86;81.00;100050.78;4380968;79;20978;-90
2022/01/15 13:00:37;;;;;;;36.05;15.75;;;;;;;2.92;81.08;100053.64;4393427;79;21030;-92
2022/01/15 13:06:39;;;;;;;36.00;13.90;;;;;;;2.91;80.86;100047.41;4390767;79;21645;-93
2022/01/15 13:12:46;;;;;;;27.00;11.88;;;;;;;2.80;80.61;100040.59;4386535;79;22351;-91
2022/01/15 13:18:59;;;;;;;37.78;14.23;;;;;;;2.73;80.30;100044.79;4372751;79;21058;-93
2022/01/15 13:25:08;;;;;;;28.80;11.97;;;;;;;2.67;80.26;100044.09;4379967;79;21002;-92
2022/01/15 13:31:05;;;;;;;26.55;11.97;;;;;;;2.58;80.54;100045.89;4383732;79;20979;-91
2022/01/15 13:37:12;;;;;;;27.15;10.35;;;;;;;2.47;80.06;100057.97;4358537;79;22530;-92
2022/01/15 13:43:34;;;;;;;31.25;11.70;;;;;;;2.39;80.05;100052.42;4379864;79;21033;-92
2022/01/15 13:56:27;;;;;;;32.78;10.88;;;;;;;2.21;80.29;100057.33;4362875;79;21596;-93
2022/01/15 14:02:33;;;;;;;41.65;12.18;;;;;;;2.12;80.36;100061.77;4374218;79;21086;-92
2022/01/15 14:08:34;;;;;;;26.57;11.47;;;;;;;2.05;80.49;100070.80;4375545;79;21103;-91
2022/01/15 14:15:04;;;;;;;36.88;12.85;;;;;;;1.99;80.33;100074.11;4376189;79;21090;-91
2022/01/15 14:21:22;;;;;;;33.40;11.63;;;;;;;1.93;80.30;100068.53;4360626;79;21063;-91
2022/01/15 14:27:22;;;;;;;32.83;12.50;;;;;;;1.83;80.17;100068.70;4380217;79;21126;-92
2022/01/15 14:33:23;;;;;;;36.88;12.50;;;;;;;1.74;80.40;100067.72;4371354;79;21509;-91
2022/01/15 14:39:25;;;;;;;37.85;14.80;;;;;;;1.66;80.61;100063.53;4369445;79;21074;-92
2022/01/15 14:45:27;;;;;;;43.13;16.93;;;;;;;1.53;80.75;100067.19;4394027;79;21093;-91
2022/01/15 14:51:29;;;;;;;46.98;16.48;;;;;;;1.43;80.99;100059.77;4373059;79;21622;-90
2022/01/15 14:57:30;;;;;;;47.70;17.25;;;;;;;1.37;80.84;100068.49;4387471;79;21011;-91
2022/01/15 15:03:32;;;;;;;54.18;18.85;;;;;;;1.22;81.06;100065.96;4382405;79;21601;-93
2022/01/15 15:09:35;;;;;;;43.60;18.15;;;;;;;1.05;81.30;100060.80;4378853;79;21578;-92
2022/01/15 15:15:37;;;;;;;55.43;17.48;;;;;;;0.85;81.36;100060.98;4388178;79;21066;-92
2022/01/15 15:21:43;;;;;;;52.30;19.52;;;;;;;0.66;81.52;100058.22;4383869;79;21085;-92
2022/01/15 15:27:48;;;;;;;67.30;20.72;;;;;;;0.50;82.13;100060.00;4384832;79;21063;-91
2022/01/15 15:33:54;;;;;;;58.10;20.85;;;;;;;0.32;82.32;100063.38;4386039;79;21065;-93
2022/01/15 15:39:57;;;;;;;55.13;19.90;;;;;;;0.14;82.49;100064.07;4390819;79;21038;-92
2022/01/15 15:45:59;;;;;;;54.85;20.77;;;;;;;0.03;82.67;100076.81;4355628;79;21035;-92
2022/01/15 15:52:04;;;;;;;57.05;22.15;;;;;;;-0.07;82.73;100073.64;4386423;79;21019;-92
2022/01/15 15:58:06;;;;;;;49.03;20.30;;;;;;;-0.13;83.14;100077.98;4380077;79;21019;-92
2022/01/15 16:04:08;;;;;;;60.33;23.65;;;;;;;-0.16;83.51;100077.98;4391987;79;21022;-94
2022/01/15 16:10:18;;;;;;;63.58;24.85;;;;;;;-0.32;83.21;100059.00;4416382;79;21117;-91
2022/01/15 16:16:19;;;;;;;77.65;26.97;;;;;;;-0.32;83.21;100059.00;4429568;79;21046;-92
2022/01/15 16:22:22;;;;;;;66.15;27.37;;;;;;;-0.37;83.49;100079.73;4429084;79;20998;-95
2022/01/15 16:28:25;;;;;;;66.00;27.27;;;;;;;-0.58;83.79;100085.74;4429553;79;21530;-93
2022/01/15 16:34:29;;;;;;;75.90;27.10;;;;;;;-0.58;83.79;100085.74;4426313;79;21553;-94
2022/01/15 16:40:32;;;;;;;78.15;29.72;;;;;;;-0.71;84.29;100078.81;4423553;79;21058;-94
2022/01/15 16:46:35;;;;;;;80.12;29.25;;;;;;;-0.82;84.12;100088.81;4409519;79;21014;-93
2022/01/15 16:52:40;;;;;;;98.35;33.15;;;;;;;-0.98;84.62;100064.39;4422926;79;21065;-94
2022/01/15 16:58:41;;;;;;;88.07;34.55;;;;;;;-0.98;84.62;100064.39;4414260;79;21084;-94
2022/01/15 17:04:42;;;;;;;94.55;36.42;;;;;;;-0.92;84.65;100079.95;4393097;79;21092;-93
2022/01/15 17:10:44;;;;;;;111.37;41.42;;;;;;;-0.89;84.69;100076.75;4399299;79;21062;-93
2022/01/15 17:16:46;;;;;;;117.90;43.50;;;;;;;-1.02;84.83;100082.69;4390026;79;21065;-94
2022/01/15 17:22:48;;;;;;;97.35;40.10;;;;;;;-1.10;84.94;100085.40;4384391;79;21034;-93
2022/01/15 17:28:51;;;;;;;99.45;37.50;;;;;;;-1.17;85.30;100080.83;4374951;79;21052;-92
2022/01/15 17:34:55;;;;;;;86.28;37.45;;;;;;;-1.16;85.76;100085.67;4386827;79;21007;-93
2022/01/15 17:40:56;;;;;;;86.85;37.50;;;;;;;-1.13;85.79;100091.85;4377686;79;21117;-94
2022/01/15 17:46:58;;;;;;;83.03;34.60;;;;;;;-1.11;86.11;100093.17;4391249;79;21560;-92
2022/01/15 17:53:00;;;;;;;104.43;39.77;;;;;;;-1.16;85.83;100094.52;4383748;79;22395;-94
2022/01/15 17:59:02;;;;;;;104.25;41.28;;;;;;;-1.35;85.74;100094.03;4273166;79;10000319;-92
2022/01/15 18:05:04;;;;;;;94.17;38.57;;;;;;;-1.43;85.78;100089.20;4393313;79;21082;-92
2022/01/15 18:11:05;;;;;;;96.17;38.90;;;;;;;-1.52;86.05;100081.43;4381446;79;21031;-93
2022/01/15 18:17:08;;;;;;;106.47;42.67;;;;;;;-1.61;85.59;100083.84;4381707;80;21041;-92
2022/01/15 18:23:15;;;;;;;107.97;40.60;;;;;;;-1.72;86.06;100086.25;4379479;80;21032;-93
2022/01/15 18:29:18;;;;;;;86.50;37.97;;;;;;;-1.67;86.67;100088.94;4380614;79;21044;-92
2022/01/15 18:35:25;;;;;;;83.23;35.87;;;;;;;-1.67;86.27;100087.60;4382493;79;21015;-93
2022/01/15 18:41:26;;;;;;;87.03;36.07;;;;;;;-1.78;86.68;100086.80;4378242;80;21091;-91
2022/01/15 18:47:28;;;;;;;80.63;37.47;;;;;;;-1.86;86.65;100088.67;4381351;80;21031;-93
2022/01/15 18:53:31;;;;;;;89.53;37.23;;;;;;;-1.94;86.94;100084.36;4375719;80;21049;-92
2022/01/15 18:59:38;;;;;;;79.80;35.57;;;;;;;-1.96;87.07;100090.55;4382772;80;21684;-91
2022/01/15 19:05:40;;;;;;;100.80;43.50;;;;;;;-1.95;87.19;100101.55;4380566;80;21074;-92
2022/01/15 19:11:42;;;;;;;104.80;39.40;;;;;;;-2.04;87.31;100123.27;4350520;80;21657;-92
2022/01/15 19:23:59;;;;;;;103.78;44.20;;;;;;;-2.14;87.35;100256.84;4370131;80;21030;-92
2022/01/15 19:30:05;;;;;;;115.23;44.37;;;;;;;-2.21;88.32;100093.97;4370548;80;21094;-92
2022/01/15 19:36:07;;;;;;;114.45;47.78;;;;;;;-2.34;89.28;100056.14;4367780;80;21087;-92
2022/01/15 19:42:15;;;;;;;163.10;66.33;;;;;;;-2.38;89.04;100102.00;4368923;80;21057;-92
2022/01/15 19:48:17;;;;;;;164.83;68.23;;;;;;;-2.34;89.16;100079.75;4369478;80;22118;-93
2022/01/15 19:54:18;;;;;;;164.27;67.53;;;;;;;-2.33;89.07;100067.13;4368468;80;21078;-93
2022/01/15 20:00:27;;;;;;;153.10;64.80;;;;;;;-2.29;89.28;100030.16;4364570;80;22085;-91
2022/01/15 20:06:29;;;;;;;168.07;67.40;;;;;;;-2.31;88.88;100033.63;4368327;80;21069;-91
2022/01/15 20:12:31;;;;;;;188.27;74.70;;;;;;;-2.34;89.41;100081.61;4375411;79;21162;-91
2022/01/15 20:18:33;;;;;;;161.07;67.07;;;;;;;-2.30;89.57;100115.69;4375663;79;21042;-92
2022/01/15 20:24:34;;;;;;;160.60;70.20;;;;;;;-2.24;89.53;100081.65;4369664;79;21052;-94
2022/01/15 20:30:35;;;;;;;175.67;73.83;;;;;;;-2.30;89.34;100054.00;4372179;79;21026;-91
2022/01/15 20:36:37;;;;;;;175.30;73.67;;;;;;;-2.32;89.30;100023.95;4368899;79;21139;-90
2022/01/15 20:42:38;;;;;;;179.67;79.17;;;;;;;-2.32;89.42;100032.55;4375033;79;21003;-92
2022/01/15 20:48:40;;;;;;;183.57;72.43;;;;;;;-2.35;89.49;100052.64;4374939;79;21712;-92
2022/01/15 20:54:41;;;;;;;171.63;71.90;;;;;;;-2.45;89.40;100072.75;4375805;79;21542;-92
2022/01/15 21:00:49;;;;;;;178.60;75.57;;;;;;;-2.49;89.44;100053.44;4371072;79;21054;-93
2022/01/15 21:06:50;;;;;;;175.47;70.37;;;;;;;-2.48;89.54;100034.92;4373398;79;21003;-92
2022/01/15 21:12:56;;;;;;;216.93;83.90;;;;;;;-2.56;89.38;100032.75;4391103;79;21623;-92
2022/01/15 21:18:57;;;;;;;191.43;77.10;;;;;;;-2.59;89.32;100055.55;4389763;79;21051;-92
2022/01/15 21:25:11;;;;;;;209.00;82.83;;;;;;;-2.87;88.83;100063.20;4399307;79;21022;-92
2022/01/15 21:31:12;;;;;;;198.13;75.63;;;;;;;-2.87;89.29;100067.23;4402863;79;21042;-92
2022/01/15 21:37:15;;;;;;;209.17;83.37;;;;;;;-3.17;89.44;100049.66;4397327;79;21073;-91
2022/01/15 21:43:17;;;;;;;243.27;98.07;;;;;;;-3.40;89.02;100060.26;4392437;79;21011;-92
2022/01/15 21:49:18;;;;;;;208.10;78.57;;;;;;;-3.39;89.55;100035.91;4397056;79;21497;-93
2022/01/15 21:55:21;;;;;;;171.13;65.83;;;;;;;-3.34;90.04;100029.77;4399662;79;21053;-92
2022/01/15 22:01:23;;;;;;;223.23;87.97;;;;;;;-3.23;89.92;100040.25;4393254;79;21493;-92
2022/01/15 22:07:24;;;;;;;212.13;79.90;;;;;;;-3.40;89.52;100053.56;4392127;79;21007;-92
2022/01/15 22:13:27;;;;;;;209.97;78.63;;;;;;;-3.43;89.59;100064.23;4384815;79;21011;-93
2022/01/15 22:19:29;;;;;;;221.97;86.30;;;;;;;-3.39;89.97;100056.50;4395423;79;21554;-93
2022/01/15 22:25:32;;;;;;;244.53;94.50;;;;;;;-3.36;89.94;100058.14;4382359;79;21065;-93
2022/01/15 22:31:34;;;;;;;227.17;90.90;;;;;;;-3.34;89.87;100033.78;4392795;79;20944;-92
2022/01/15 22:37:37;;;;;;;206.60;80.40;;;;;;;-3.47;89.43;100040.40;4384876;79;21090;-93
2022/01/15 22:43:39;;;;;;;217.40;82.77;;;;;;;-3.66;89.77;100035.19;4384122;79;21033;-92
2022/01/15 22:49:41;;;;;;;208.10;86.03;;;;;;;-3.68;89.55;100047.22;4367911;79;21356;-93
2022/01/15 22:55:43;;;;;;;205.67;77.70;;;;;;;-3.72;90.09;100046.92;4387793;79;21006;-91
2022/01/15 23:01:52;;;;;;;225.67;87.10;;;;;;;-3.68;89.74;100045.33;4382503;79;21506;-94
2022/01/15 23:07:55;;;;;;;269.87;103.77;;;;;;;-3.91;89.80;100055.06;4382606;79;20998;-92
2022/01/15 23:14:01;;;;;;;206.93;87.23;;;;;;;-4.00;90.19;100042.41;4395584;79;21051;-93
2022/01/15 23:20:01;;;;;;;247.10;95.83;;;;;;;-3.84;90.81;100034.78;4393984;79;21141;-92
2022/01/15 23:26:03;;;;;;;198.30;74.03;;;;;;;-3.81;90.38;100031.08;4396510;79;21022;-93
2022/01/15 23:32:07;;;;;;;191.57;73.67;;;;;;;-3.92;89.79;100040.08;4391476;79;21004;-93
2022/01/15 23:38:12;;;;;;;208.30;81.57;;;;;;;-3.86;90.51;100029.69;4399331;79;21102;-92
2022/01/15 23:44:32;;;;;;;221.33;90.17;;;;;;;-3.93;90.20;100023.73;4392233;79;21042;-93
2022/01/15 23:50:21;;;;;;;;;;;;;;;-4.01;90.09;100018.86;4384257;79;21361;-94
2022/01/15 23:56:22;;;;;;;230.30;87.33;;;;;;;-4.07;90.44;100017.20;4393690;79;20206;-92
